sensor_id;sensor_type;location;lat;lon;timestamp;P1;durP1;ratioP1;P2;durP2;ratioP2
70592;SDS011;58294;42.988;20.338;2024-01-07T00:00:03;13.63;;;10.63;;
70592;SDS011;58294;42.988;20.338;2024-01-07T00:02:29;14.85;;;11.75;;
70592;SDS011;58294;42.988;20.338;2024-01-07T00:04:58;13.15;;;11.35;;
70592;SDS011;58294;42.988;20.338;2024-01-07T00:07:24;12.20;;;10.50;;
70592;SDS011;58294;42.988;20.338;2024-01-07T00:09:50;14.10;;;12.10;;
70592;SDS011;58294;42.988;20.338;2024-01-07T00:12:16;17.40;;;14.35;;
70592;SDS011;58294;42.988;20.338;2024-01-07T00:14:42;14.63;;;11.82;;
70592;SDS011;58294;42.988;20.338;2024-01-07T00:17:08;16.95;;;14.48;;
70592;SDS011;58294;42.988;20.338;2024-01-07T00:19:35;19.25;;;15.50;;
70592;SDS011;58294;42.988;20.338;2024-01-07T00:22:02;25.00;;;18.40;;
70592;SDS011;58294;42.988;20.338;2024-01-07T00:24:28;17.60;;;14.25;;
70592;SDS011;58294;42.988;20.338;2024-01-07T00:26:54;18.85;;;14.32;;
70592;SDS011;58294;42.988;20.338;2024-01-07T00:29:21;20.42;;;15.65;;
70592;SDS011;58294;42.988;20.338;2024-01-07T00:31:46;12.65;;;11.35;;
70592;SDS011;58294;42.988;20.338;2024-01-07T00:34:12;16.52;;;12.65;;
70592;SDS011;58294;42.988;20.338;2024-01-07T00:36:38;21.05;;;15.15;;
70592;SDS011;58294;42.988;20.338;2024-01-07T00:39:05;32.60;;;24.70;;
70592;SDS011;58294;42.988;20.338;2024-01-07T00:41:32;17.55;;;14.35;;
70592;SDS011;58294;42.988;20.338;2024-01-07T00:43:58;20.73;;;14.82;;
70592;SDS011;58294;42.988;20.338;2024-01-07T00:46:23;14.43;;;12.75;;
70592;SDS011;58294;42.988;20.338;2024-01-07T00:48:49;18.35;;;15.43;;
70592;SDS011;58294;42.988;20.338;2024-01-07T00:51:15;15.20;;;11.18;;
70592;SDS011;58294;42.988;20.338;2024-01-07T00:53:41;14.98;;;13.02;;
70592;SDS011;58294;42.988;20.338;2024-01-07T00:56:06;13.18;;;11.63;;
70592;SDS011;58294;42.988;20.338;2024-01-07T00:58:32;14.48;;;12.77;;
70592;SDS011;58294;42.988;20.338;2024-01-07T01:00:58;10.05;;;9.02;;
70592;SDS011;58294;42.988;20.338;2024-01-07T01:03:25;13.88;;;11.40;;
70592;SDS011;58294;42.988;20.338;2024-01-07T01:05:51;12.55;;;11.25;;
70592;SDS011;58294;42.988;20.338;2024-01-07T01:08:17;11.02;;;9.93;;
70592;SDS011;58294;42.988;20.338;2024-01-07T01:10:43;11.98;;;10.27;;
70592;SDS011;58294;42.988;20.338;2024-01-07T01:13:09;12.73;;;9.35;;
70592;SDS011;58294;42.988;20.338;2024-01-07T01:15:35;10.18;;;9.05;;
70592;SDS011;58294;42.988;20.338;2024-01-07T01:18:01;10.50;;;8.00;;
70592;SDS011;58294;42.988;20.338;2024-01-07T01:20:26;11.05;;;7.60;;
70592;SDS011;58294;42.988;20.338;2024-01-07T01:22:52;17.85;;;11.68;;
70592;SDS011;58294;42.988;20.338;2024-01-07T01:25:18;18.20;;;13.88;;
70592;SDS011;58294;42.988;20.338;2024-01-07T01:27:44;12.45;;;10.63;;
70592;SDS011;58294;42.988;20.338;2024-01-07T01:30:10;13.77;;;11.68;;
70592;SDS011;58294;42.988;20.338;2024-01-07T01:32:38;12.77;;;11.48;;
70592;SDS011;58294;42.988;20.338;2024-01-07T01:35:04;12.48;;;10.50;;
70592;SDS011;58294;42.988;20.338;2024-01-07T01:37:31;15.45;;;8.93;;
70592;SDS011;58294;42.988;20.338;2024-01-07T01:39:59;28.52;;;23.60;;
70592;SDS011;58294;42.988;20.338;2024-01-07T01:42:25;22.15;;;18.27;;
70592;SDS011;58294;42.988;20.338;2024-01-07T01:44:51;17.85;;;14.00;;
70592;SDS011;58294;42.988;20.338;2024-01-07T01:47:20;13.43;;;11.18;;
70592;SDS011;58294;42.988;20.338;2024-01-07T01:49:46;14.23;;;10.82;;
70592;SDS011;58294;42.988;20.338;2024-01-07T01:52:12;14.75;;;10.15;;
70592;SDS011;58294;42.988;20.338;2024-01-07T01:54:38;11.48;;;8.90;;
70592;SDS011;58294;42.988;20.338;2024-01-07T01:57:05;11.90;;;10.23;;
70592;SDS011;58294;42.988;20.338;2024-01-07T01:59:33;10.18;;;9.18;;
70592;SDS011;58294;42.988;20.338;2024-01-07T02:01:59;9.93;;;8.68;;
70592;SDS011;58294;42.988;20.338;2024-01-07T02:04:26;10.52;;;8.63;;
70592;SDS011;58294;42.988;20.338;2024-01-07T02:06:52;9.98;;;9.00;;
70592;SDS011;58294;42.988;20.338;2024-01-07T02:09:18;9.55;;;8.20;;
70592;SDS011;58294;42.988;20.338;2024-01-07T02:11:59;8.38;;;7.55;;
70592;SDS011;58294;42.988;20.338;2024-01-07T02:14:29;10.40;;;7.88;;
70592;SDS011;58294;42.988;20.338;2024-01-07T02:16:54;10.05;;;8.85;;
70592;SDS011;58294;42.988;20.338;2024-01-07T02:19:20;7.88;;;7.00;;
70592;SDS011;58294;42.988;20.338;2024-01-07T02:21:49;10.52;;;8.43;;
70592;SDS011;58294;42.988;20.338;2024-01-07T02:24:16;9.63;;;8.35;;
70592;SDS011;58294;42.988;20.338;2024-01-07T02:26:42;9.70;;;8.70;;
70592;SDS011;58294;42.988;20.338;2024-01-07T02:29:07;13.75;;;8.30;;
70592;SDS011;58294;42.988;20.338;2024-01-07T02:31:33;10.40;;;9.00;;
70592;SDS011;58294;42.988;20.338;2024-01-07T02:33:59;9.38;;;8.35;;
70592;SDS011;58294;42.988;20.338;2024-01-07T02:36:25;14.65;;;8.63;;
70592;SDS011;58294;42.988;20.338;2024-01-07T02:38:51;10.90;;;7.57;;
70592;SDS011;58294;42.988;20.338;2024-01-07T02:41:16;11.70;;;7.38;;
70592;SDS011;58294;42.988;20.338;2024-01-07T02:43:42;9.65;;;7.38;;
70592;SDS011;58294;42.988;20.338;2024-01-07T02:46:08;8.05;;;6.70;;
70592;SDS011;58294;42.988;20.338;2024-01-07T02:48:34;4.80;;;4.30;;
70592;SDS011;58294;42.988;20.338;2024-01-07T02:51:00;6.18;;;5.55;;
70592;SDS011;58294;42.988;20.338;2024-01-07T02:53:28;7.03;;;5.93;;
70592;SDS011;58294;42.988;20.338;2024-01-07T02:55:54;9.98;;;8.98;;
70592;SDS011;58294;42.988;20.338;2024-01-07T02:58:20;49.78;;;32.28;;
70592;SDS011;58294;42.988;20.338;2024-01-07T03:00:45;34.25;;;24.42;;
70592;SDS011;58294;42.988;20.338;2024-01-07T03:03:11;25.63;;;19.88;;
70592;SDS011;58294;42.988;20.338;2024-01-07T03:05:37;23.45;;;19.08;;
70592;SDS011;58294;42.988;20.338;2024-01-07T03:08:03;21.58;;;17.27;;
70592;SDS011;58294;42.988;20.338;2024-01-07T03:10:29;18.02;;;14.85;;
70592;SDS011;58294;42.988;20.338;2024-01-07T03:12:55;21.52;;;18.27;;
70592;SDS011;58294;42.988;20.338;2024-01-07T03:15:20;24.42;;;20.10;;
70592;SDS011;58294;42.988;20.338;2024-01-07T03:17:46;21.30;;;18.60;;
70592;SDS011;58294;42.988;20.338;2024-01-07T03:20:12;20.10;;;16.70;;
70592;SDS011;58294;42.988;20.338;2024-01-07T03:22:38;12.45;;;11.15;;
70592;SDS011;58294;42.988;20.338;2024-01-07T03:25:04;11.40;;;9.23;;
70592;SDS011;58294;42.988;20.338;2024-01-07T03:27:30;10.25;;;9.15;;
70592;SDS011;58294;42.988;20.338;2024-01-07T03:29:56;11.55;;;9.57;;
70592;SDS011;58294;42.988;20.338;2024-01-07T03:32:21;10.82;;;9.80;;
70592;SDS011;58294;42.988;20.338;2024-01-07T03:34:47;8.02;;;6.90;;
70592;SDS011;58294;42.988;20.338;2024-01-07T03:37:13;9.90;;;8.68;;
70592;SDS011;58294;42.988;20.338;2024-01-07T03:39:39;11.32;;;7.95;;
70592;SDS011;58294;42.988;20.338;2024-01-07T03:42:05;8.35;;;6.68;;
70592;SDS011;58294;42.988;20.338;2024-01-07T03:44:36;7.93;;;7.22;;
70592;SDS011;58294;42.988;20.338;2024-01-07T03:47:03;8.18;;;7.22;;
70592;SDS011;58294;42.988;20.338;2024-01-07T03:49:29;8.80;;;7.38;;
70592;SDS011;58294;42.988;20.338;2024-01-07T03:51:55;28.00;;;22.20;;
70592;SDS011;58294;42.988;20.338;2024-01-07T03:54:21;16.00;;;13.23;;
70592;SDS011;58294;42.988;20.338;2024-01-07T03:56:47;23.02;;;17.23;;
70592;SDS011;58294;42.988;20.338;2024-01-07T03:59:12;17.17;;;15.38;;
70592;SDS011;58294;42.988;20.338;2024-01-07T04:01:38;13.23;;;11.85;;
70592;SDS011;58294;42.988;20.338;2024-01-07T04:04:04;14.77;;;12.68;;
70592;SDS011;58294;42.988;20.338;2024-01-07T04:06:30;14.40;;;12.85;;
70592;SDS011;58294;42.988;20.338;2024-01-07T04:08:56;15.38;;;13.73;;
70592;SDS011;58294;42.988;20.338;2024-01-07T04:11:22;16.50;;;14.65;;
70592;SDS011;58294;42.988;20.338;2024-01-07T04:13:47;14.68;;;13.15;;
70592;SDS011;58294;42.988;20.338;2024-01-07T04:16:17;17.08;;;14.75;;
70592;SDS011;58294;42.988;20.338;2024-01-07T04:18:43;18.10;;;13.90;;
70592;SDS011;58294;42.988;20.338;2024-01-07T04:21:10;15.88;;;13.98;;
70592;SDS011;58294;42.988;20.338;2024-01-07T04:23:38;18.35;;;16.27;;
70592;SDS011;58294;42.988;20.338;2024-01-07T04:26:06;28.70;;;22.85;;
70592;SDS011;58294;42.988;20.338;2024-01-07T04:28:32;38.50;;;28.10;;
70592;SDS011;58294;42.988;20.338;2024-01-07T04:30:58;45.20;;;35.95;;
70592;SDS011;58294;42.988;20.338;2024-01-07T04:33:24;19.92;;;15.70;;
70592;SDS011;58294;42.988;20.338;2024-01-07T04:35:49;23.67;;;21.08;;
70592;SDS011;58294;42.988;20.338;2024-01-07T04:38:15;29.45;;;25.23;;
70592;SDS011;58294;42.988;20.338;2024-01-07T04:40:41;34.97;;;28.17;;
70592;SDS011;58294;42.988;20.338;2024-01-07T04:43:06;46.85;;;38.35;;
70592;SDS011;58294;42.988;20.338;2024-01-07T04:45:32;35.38;;;28.85;;
70592;SDS011;58294;42.988;20.338;2024-01-07T04:47:58;30.40;;;26.20;;
70592;SDS011;58294;42.988;20.338;2024-01-07T04:50:24;34.35;;;28.27;;
70592;SDS011;58294;42.988;20.338;2024-01-07T04:52:50;69.55;;;57.00;;
70592;SDS011;58294;42.988;20.338;2024-01-07T04:55:15;81.30;;;59.83;;
70592;SDS011;58294;42.988;20.338;2024-01-07T04:57:41;76.38;;;56.80;;
70592;SDS011;58294;42.988;20.338;2024-01-07T05:00:07;93.60;;;65.72;;
70592;SDS011;58294;42.988;20.338;2024-01-07T05:02:33;61.42;;;47.50;;
70592;SDS011;58294;42.988;20.338;2024-01-07T05:04:59;159.52;;;99.45;;
70592;SDS011;58294;42.988;20.338;2024-01-07T05:07:25;241.63;;;140.77;;
70592;SDS011;58294;42.988;20.338;2024-01-07T05:09:50;98.13;;;55.42;;
70592;SDS011;58294;42.988;20.338;2024-01-07T05:12:16;45.60;;;33.47;;
70592;SDS011;58294;42.988;20.338;2024-01-07T05:14:42;36.47;;;28.27;;
70592;SDS011;58294;42.988;20.338;2024-01-07T05:17:09;25.33;;;20.17;;
70592;SDS011;58294;42.988;20.338;2024-01-07T05:19:34;18.15;;;13.90;;
70592;SDS011;58294;42.988;20.338;2024-01-07T05:22:00;28.85;;;19.98;;
70592;SDS011;58294;42.988;20.338;2024-01-07T05:24:26;23.38;;;18.15;;
70592;SDS011;58294;42.988;20.338;2024-01-07T05:26:52;26.95;;;20.58;;
70592;SDS011;58294;42.988;20.338;2024-01-07T05:29:18;43.00;;;32.65;;
70592;SDS011;58294;42.988;20.338;2024-01-07T05:31:44;41.05;;;30.45;;
70592;SDS011;58294;42.988;20.338;2024-01-07T05:34:10;25.25;;;21.10;;
70592;SDS011;58294;42.988;20.338;2024-01-07T05:36:35;27.05;;;22.20;;
70592;SDS011;58294;42.988;20.338;2024-01-07T05:39:01;15.27;;;13.60;;
70592;SDS011;58294;42.988;20.338;2024-01-07T05:41:27;20.33;;;15.90;;
70592;SDS011;58294;42.988;20.338;2024-01-07T05:43:53;24.83;;;19.85;;
70592;SDS011;58294;42.988;20.338;2024-01-07T05:46:19;27.60;;;24.02;;
70592;SDS011;58294;42.988;20.338;2024-01-07T05:48:46;26.02;;;23.23;;
70592;SDS011;58294;42.988;20.338;2024-01-07T05:51:13;16.67;;;15.02;;
70592;SDS011;58294;42.988;20.338;2024-01-07T05:53:40;14.77;;;11.73;;
70592;SDS011;58294;42.988;20.338;2024-01-07T05:56:06;9.50;;;8.65;;
70592;SDS011;58294;42.988;20.338;2024-01-07T05:58:32;10.15;;;8.65;;
70592;SDS011;58294;42.988;20.338;2024-01-07T06:00:59;15.73;;;11.93;;
70592;SDS011;58294;42.988;20.338;2024-01-07T06:03:25;10.73;;;9.50;;
70592;SDS011;58294;42.988;20.338;2024-01-07T06:05:51;16.17;;;14.00;;
70592;SDS011;58294;42.988;20.338;2024-01-07T06:08:17;22.85;;;15.30;;
70592;SDS011;58294;42.988;20.338;2024-01-07T06:10:43;12.88;;;9.48;;
70592;SDS011;58294;42.988;20.338;2024-01-07T06:13:09;18.25;;;14.07;;
70592;SDS011;58294;42.988;20.338;2024-01-07T06:15:35;62.78;;;43.38;;
70592;SDS011;58294;42.988;20.338;2024-01-07T06:18:01;36.60;;;27.33;;
70592;SDS011;58294;42.988;20.338;2024-01-07T06:20:27;56.03;;;45.30;;
70592;SDS011;58294;42.988;20.338;2024-01-07T06:22:53;55.60;;;43.30;;
70592;SDS011;58294;42.988;20.338;2024-01-07T06:25:19;61.53;;;44.30;;
70592;SDS011;58294;42.988;20.338;2024-01-07T06:27:45;72.72;;;54.13;;
70592;SDS011;58294;42.988;20.338;2024-01-07T06:30:11;70.82;;;55.00;;
70592;SDS011;58294;42.988;20.338;2024-01-07T06:32:37;77.30;;;57.35;;
70592;SDS011;58294;42.988;20.338;2024-01-07T06:35:03;64.70;;;52.08;;
70592;SDS011;58294;42.988;20.338;2024-01-07T06:37:29;60.45;;;47.55;;
70592;SDS011;58294;42.988;20.338;2024-01-07T06:39:56;72.45;;;53.70;;
70592;SDS011;58294;42.988;20.338;2024-01-07T06:42:23;70.75;;;54.92;;
70592;SDS011;58294;42.988;20.338;2024-01-07T06:44:49;61.95;;;48.05;;
70592;SDS011;58294;42.988;20.338;2024-01-07T06:47:15;25.73;;;22.60;;
70592;SDS011;58294;42.988;20.338;2024-01-07T06:49:41;40.53;;;36.33;;
70592;SDS011;58294;42.988;20.338;2024-01-07T06:52:06;29.05;;;24.55;;
70592;SDS011;58294;42.988;20.338;2024-01-07T06:54:32;26.08;;;22.55;;
70592;SDS011;58294;42.988;20.338;2024-01-07T06:56:58;24.67;;;22.08;;
70592;SDS011;58294;42.988;20.338;2024-01-07T06:59:24;25.50;;;22.25;;
70592;SDS011;58294;42.988;20.338;2024-01-07T07:01:50;27.60;;;24.70;;
70592;SDS011;58294;42.988;20.338;2024-01-07T07:04:15;31.58;;;27.35;;
70592;SDS011;58294;42.988;20.338;2024-01-07T07:06:41;30.27;;;26.88;;
70592;SDS011;58294;42.988;20.338;2024-01-07T07:09:07;39.78;;;30.73;;
70592;SDS011;58294;42.988;20.338;2024-01-07T07:11:33;41.75;;;31.27;;
70592;SDS011;58294;42.988;20.338;2024-01-07T07:13:59;32.13;;;26.33;;
70592;SDS011;58294;42.988;20.338;2024-01-07T07:16:25;23.98;;;20.75;;
70592;SDS011;58294;42.988;20.338;2024-01-07T07:18:51;32.20;;;28.73;;
70592;SDS011;58294;42.988;20.338;2024-01-07T07:21:17;37.22;;;33.50;;
70592;SDS011;58294;42.988;20.338;2024-01-07T07:23:43;33.00;;;29.27;;
70592;SDS011;58294;42.988;20.338;2024-01-07T07:26:08;39.75;;;35.58;;
70592;SDS011;58294;42.988;20.338;2024-01-07T07:28:34;80.30;;;60.40;;
70592;SDS011;58294;42.988;20.338;2024-01-07T07:31:00;39.45;;;31.70;;
70592;SDS011;58294;42.988;20.338;2024-01-07T07:33:26;135.93;;;108.53;;
70592;SDS011;58294;42.988;20.338;2024-01-07T07:35:51;101.68;;;86.15;;
70592;SDS011;58294;42.988;20.338;2024-01-07T07:38:17;83.88;;;72.53;;
70592;SDS011;58294;42.988;20.338;2024-01-07T07:40:43;85.18;;;71.78;;
70592;SDS011;58294;42.988;20.338;2024-01-07T07:43:10;69.43;;;59.10;;
70592;SDS011;58294;42.988;20.338;2024-01-07T07:45:36;65.15;;;53.53;;
70592;SDS011;58294;42.988;20.338;2024-01-07T07:48:01;76.10;;;59.38;;
70592;SDS011;58294;42.988;20.338;2024-01-07T07:50:27;60.22;;;52.53;;
70592;SDS011;58294;42.988;20.338;2024-01-07T07:52:53;57.22;;;51.05;;
70592;SDS011;58294;42.988;20.338;2024-01-07T07:55:19;60.47;;;52.90;;
70592;SDS011;58294;42.988;20.338;2024-01-07T07:57:45;53.25;;;46.92;;
70592;SDS011;58294;42.988;20.338;2024-01-07T08:00:11;45.38;;;40.65;;
70592;SDS011;58294;42.988;20.338;2024-01-07T08:02:37;43.80;;;36.00;;
70592;SDS011;58294;42.988;20.338;2024-01-07T08:05:04;51.30;;;42.30;;
70592;SDS011;58294;42.988;20.338;2024-01-07T08:07:33;55.15;;;43.92;;
70592;SDS011;58294;42.988;20.338;2024-01-07T08:09:59;48.97;;;41.83;;
70592;SDS011;58294;42.988;20.338;2024-01-07T08:12:25;32.17;;;26.95;;
70592;SDS011;58294;42.988;20.338;2024-01-07T08:14:51;27.00;;;24.20;;
70592;SDS011;58294;42.988;20.338;2024-01-07T08:17:16;24.05;;;21.55;;
70592;SDS011;58294;42.988;20.338;2024-01-07T08:19:42;16.60;;;14.23;;
70592;SDS011;58294;42.988;20.338;2024-01-07T08:22:08;15.27;;;13.68;;
70592;SDS011;58294;42.988;20.338;2024-01-07T08:24:37;15.70;;;12.93;;
70592;SDS011;58294;42.988;20.338;2024-01-07T08:27:03;10.52;;;9.40;;
70592;SDS011;58294;42.988;20.338;2024-01-07T08:29:30;11.93;;;9.75;;
70592;SDS011;58294;42.988;20.338;2024-01-07T08:31:55;10.27;;;8.77;;
70592;SDS011;58294;42.988;20.338;2024-01-07T08:34:21;24.50;;;19.63;;
70592;SDS011;58294;42.988;20.338;2024-01-07T08:36:47;10.98;;;9.88;;
70592;SDS011;58294;42.988;20.338;2024-01-07T08:39:14;21.20;;;18.85;;
70592;SDS011;58294;42.988;20.338;2024-01-07T08:41:40;21.17;;;17.45;;
70592;SDS011;58294;42.988;20.338;2024-01-07T08:44:06;16.00;;;14.32;;
70592;SDS011;58294;42.988;20.338;2024-01-07T08:46:35;10.85;;;9.77;;
70592;SDS011;58294;42.988;20.338;2024-01-07T08:49:01;8.85;;;7.93;;
70592;SDS011;58294;42.988;20.338;2024-01-07T08:51:27;7.82;;;6.65;;
70592;SDS011;58294;42.988;20.338;2024-01-07T08:53:54;10.60;;;9.52;;
70592;SDS011;58294;42.988;20.338;2024-01-07T08:56:22;11.65;;;10.45;;
70592;SDS011;58294;42.988;20.338;2024-01-07T08:58:48;15.98;;;10.63;;
70592;SDS011;58294;42.988;20.338;2024-01-07T09:01:14;8.15;;;7.35;;
70592;SDS011;58294;42.988;20.338;2024-01-07T09:03:40;10.02;;;8.88;;
70592;SDS011;58294;42.988;20.338;2024-01-07T09:06:06;9.77;;;7.50;;
70592;SDS011;58294;42.988;20.338;2024-01-07T09:08:33;10.35;;;8.10;;
70592;SDS011;58294;42.988;20.338;2024-01-07T09:11:00;10.88;;;9.77;;
70592;SDS011;58294;42.988;20.338;2024-01-07T09:13:29;8.57;;;7.75;;
70592;SDS011;58294;42.988;20.338;2024-01-07T09:15:54;8.07;;;6.47;;
70592;SDS011;58294;42.988;20.338;2024-01-07T09:18:20;9.25;;;7.63;;
70592;SDS011;58294;42.988;20.338;2024-01-07T09:20:46;7.97;;;7.18;;
70592;SDS011;58294;42.988;20.338;2024-01-07T09:23:12;6.60;;;5.88;;
70592;SDS011;58294;42.988;20.338;2024-01-07T09:25:37;8.05;;;6.07;;
70592;SDS011;58294;42.988;20.338;2024-01-07T09:28:03;5.63;;;5.03;;
70592;SDS011;58294;42.988;20.338;2024-01-07T09:30:30;5.85;;;5.25;;
70592;SDS011;58294;42.988;20.338;2024-01-07T09:32:56;6.72;;;4.80;;
70592;SDS011;58294;42.988;20.338;2024-01-07T09:35:21;9.77;;;7.97;;
70592;SDS011;58294;42.988;20.338;2024-01-07T09:37:47;5.85;;;5.20;;
70592;SDS011;58294;42.988;20.338;2024-01-07T09:40:16;6.30;;;4.90;;
70592;SDS011;58294;42.988;20.338;2024-01-07T09:42:44;5.60;;;4.75;;
70592;SDS011;58294;42.988;20.338;2024-01-07T09:45:11;4.70;;;4.07;;
70592;SDS011;58294;42.988;20.338;2024-01-07T09:47:39;5.82;;;4.53;;
70592;SDS011;58294;42.988;20.338;2024-01-07T09:50:08;8.73;;;8.02;;
70592;SDS011;58294;42.988;20.338;2024-01-07T09:52:35;12.00;;;11.00;;
70592;SDS011;58294;42.988;20.338;2024-01-07T09:55:02;8.40;;;6.95;;
70592;SDS011;58294;42.988;20.338;2024-01-07T09:57:29;11.30;;;8.65;;
70592;SDS011;58294;42.988;20.338;2024-01-07T09:59:55;11.80;;;8.52;;
70592;SDS011;58294;42.988;20.338;2024-01-07T10:02:21;6.68;;;5.28;;
70592;SDS011;58294;42.988;20.338;2024-01-07T10:04:49;9.27;;;7.95;;
70592;SDS011;58294;42.988;20.338;2024-01-07T10:07:15;6.65;;;5.03;;
70592;SDS011;58294;42.988;20.338;2024-01-07T10:09:42;8.00;;;5.75;;
70592;SDS011;58294;42.988;20.338;2024-01-07T10:12:08;13.60;;;12.25;;
70592;SDS011;58294;42.988;20.338;2024-01-07T10:14:35;4.97;;;4.30;;
70592;SDS011;58294;42.988;20.338;2024-01-07T10:17:00;6.68;;;5.93;;
70592;SDS011;58294;42.988;20.338;2024-01-07T10:19:26;13.20;;;12.20;;
70592;SDS011;58294;42.988;20.338;2024-01-07T10:22:02;10.60;;;8.18;;
70592;SDS011;58294;42.988;20.338;2024-01-07T10:24:35;8.30;;;6.05;;
70592;SDS011;58294;42.988;20.338;2024-01-07T10:29:29;17.45;;;15.95;;
70592;SDS011;58294;42.988;20.338;2024-01-07T10:31:57;9.35;;;7.53;;
70592;SDS011;58294;42.988;20.338;2024-01-07T10:34:23;9.40;;;4.20;;
70592;SDS011;58294;42.988;20.338;2024-01-07T10:36:51;7.60;;;6.28;;
70592;SDS011;58294;42.988;20.338;2024-01-07T10:39:21;11.77;;;10.70;;
70592;SDS011;58294;42.988;20.338;2024-01-07T10:41:47;7.47;;;5.30;;
70592;SDS011;58294;42.988;20.338;2024-01-07T10:44:15;6.70;;;4.68;;
70592;SDS011;58294;42.988;20.338;2024-01-07T10:46:40;12.52;;;10.20;;
70592;SDS011;58294;42.988;20.338;2024-01-07T10:49:19;7.68;;;6.03;;
70592;SDS011;58294;42.988;20.338;2024-01-07T10:51:48;13.07;;;11.18;;
70592;SDS011;58294;42.988;20.338;2024-01-07T10:54:42;14.10;;;9.57;;
70592;SDS011;58294;42.988;20.338;2024-01-07T10:57:18;10.10;;;6.50;;
70592;SDS011;58294;42.988;20.338;2024-01-07T10:59:54;9.45;;;6.13;;
70592;SDS011;58294;42.988;20.338;2024-01-07T11:02:22;10.40;;;7.53;;
70592;SDS011;58294;42.988;20.338;2024-01-07T11:07:46;10.02;;;7.32;;
70592;SDS011;58294;42.988;20.338;2024-01-07T11:10:39;22.77;;;11.63;;
70592;SDS011;58294;42.988;20.338;2024-01-07T11:13:35;18.73;;;12.82;;
70592;SDS011;58294;42.988;20.338;2024-01-07T11:16:01;7.95;;;5.05;;
70592;SDS011;58294;42.988;20.338;2024-01-07T11:18:27;11.32;;;6.50;;
70592;SDS011;58294;42.988;20.338;2024-01-07T11:21:01;6.10;;;4.90;;
70592;SDS011;58294;42.988;20.338;2024-01-07T11:23:34;7.28;;;6.60;;
70592;SDS011;58294;42.988;20.338;2024-01-07T11:26:05;9.77;;;6.95;;
70592;SDS011;58294;42.988;20.338;2024-01-07T11:28:47;10.32;;;6.53;;
70592;SDS011;58294;42.988;20.338;2024-01-07T11:31:15;13.02;;;8.65;;
70592;SDS011;58294;42.988;20.338;2024-01-07T11:33:46;11.07;;;7.30;;
70592;SDS011;58294;42.988;20.338;2024-01-07T11:36:13;11.15;;;8.95;;
70592;SDS011;58294;42.988;20.338;2024-01-07T11:38:49;8.15;;;6.07;;
70592;SDS011;58294;42.988;20.338;2024-01-07T11:41:16;7.40;;;6.70;;
70592;SDS011;58294;42.988;20.338;2024-01-07T11:44:01;12.40;;;8.68;;
70592;SDS011;58294;42.988;20.338;2024-01-07T11:46:28;15.32;;;10.23;;
70592;SDS011;58294;42.988;20.338;2024-01-07T11:48:56;13.10;;;10.75;;
70592;SDS011;58294;42.988;20.338;2024-01-07T11:51:30;12.40;;;10.05;;
70592;SDS011;58294;42.988;20.338;2024-01-07T11:54:00;14.68;;;10.50;;
70592;SDS011;58294;42.988;20.338;2024-01-07T11:56:26;29.67;;;27.08;;
70592;SDS011;58294;42.988;20.338;2024-01-07T11:58:53;17.33;;;15.63;;
70592;SDS011;58294;42.988;20.338;2024-01-07T12:01:19;17.13;;;12.18;;
70592;SDS011;58294;42.988;20.338;2024-01-07T12:03:45;18.15;;;13.73;;
70592;SDS011;58294;42.988;20.338;2024-01-07T12:06:11;15.27;;;13.60;;
70592;SDS011;58294;42.988;20.338;2024-01-07T12:08:48;12.90;;;10.75;;
70592;SDS011;58294;42.988;20.338;2024-01-07T12:11:14;11.63;;;10.35;;
70592;SDS011;58294;42.988;20.338;2024-01-07T12:13:41;12.70;;;11.43;;
70592;SDS011;58294;42.988;20.338;2024-01-07T12:16:08;19.77;;;15.48;;
70592;SDS011;58294;42.988;20.338;2024-01-07T12:18:37;16.92;;;12.43;;
70592;SDS011;58294;42.988;20.338;2024-01-07T12:21:07;13.90;;;12.15;;
70592;SDS011;58294;42.988;20.338;2024-01-07T12:23:36;19.30;;;15.13;;
70592;SDS011;58294;42.988;20.338;2024-01-07T12:26:08;22.45;;;16.65;;
70592;SDS011;58294;42.988;20.338;2024-01-07T12:28:36;26.17;;;17.40;;
70592;SDS011;58294;42.988;20.338;2024-01-07T12:31:02;19.92;;;15.60;;
70592;SDS011;58294;42.988;20.338;2024-01-07T12:33:31;16.35;;;14.27;;
70592;SDS011;58294;42.988;20.338;2024-01-07T12:35:58;14.95;;;11.90;;
70592;SDS011;58294;42.988;20.338;2024-01-07T12:38:25;17.05;;;13.85;;
70592;SDS011;58294;42.988;20.338;2024-01-07T12:40:54;16.40;;;12.93;;
70592;SDS011;58294;42.988;20.338;2024-01-07T12:43:21;19.85;;;14.95;;
70592;SDS011;58294;42.988;20.338;2024-01-07T12:45:48;21.15;;;14.98;;
70592;SDS011;58294;42.988;20.338;2024-01-07T12:48:14;18.13;;;14.55;;
70592;SDS011;58294;42.988;20.338;2024-01-07T12:50:40;21.85;;;17.25;;
70592;SDS011;58294;42.988;20.338;2024-01-07T12:53:06;23.45;;;19.05;;
70592;SDS011;58294;42.988;20.338;2024-01-07T12:55:32;23.10;;;16.60;;
70592;SDS011;58294;42.988;20.338;2024-01-07T12:57:58;13.38;;;11.13;;
70592;SDS011;58294;42.988;20.338;2024-01-07T13:00:24;9.98;;;9.00;;
70592;SDS011;58294;42.988;20.338;2024-01-07T13:02:53;12.70;;;9.80;;
70592;SDS011;58294;42.988;20.338;2024-01-07T13:05:19;13.23;;;11.40;;
70592;SDS011;58294;42.988;20.338;2024-01-07T13:07:48;15.02;;;12.23;;
70592;SDS011;58294;42.988;20.338;2024-01-07T13:10:15;17.27;;;14.52;;
70592;SDS011;58294;42.988;20.338;2024-01-07T13:12:41;15.88;;;12.00;;
70592;SDS011;58294;42.988;20.338;2024-01-07T13:15:09;13.40;;;11.48;;
70592;SDS011;58294;42.988;20.338;2024-01-07T13:17:36;13.65;;;12.10;;
70592;SDS011;58294;42.988;20.338;2024-01-07T13:20:02;12.77;;;10.32;;
70592;SDS011;58294;42.988;20.338;2024-01-07T13:22:31;15.43;;;11.65;;
70592;SDS011;58294;42.988;20.338;2024-01-07T13:24:57;13.80;;;9.85;;
70592;SDS011;58294;42.988;20.338;2024-01-07T13:27:23;11.90;;;10.63;;
70592;SDS011;58294;42.988;20.338;2024-01-07T13:29:49;10.77;;;8.48;;
70592;SDS011;58294;42.988;20.338;2024-01-07T13:32:15;13.23;;;9.25;;
70592;SDS011;58294;42.988;20.338;2024-01-07T13:34:42;14.55;;;10.98;;
70592;SDS011;58294;42.988;20.338;2024-01-07T13:37:09;11.05;;;8.45;;
70592;SDS011;58294;42.988;20.338;2024-01-07T13:39:35;12.88;;;8.82;;
70592;SDS011;58294;42.988;20.338;2024-01-07T13:42:01;13.82;;;9.52;;
70592;SDS011;58294;42.988;20.338;2024-01-07T13:44:28;13.52;;;11.13;;
70592;SDS011;58294;42.988;20.338;2024-01-07T13:46:54;13.98;;;12.13;;
70592;SDS011;58294;42.988;20.338;2024-01-07T13:49:19;12.95;;;10.15;;
70592;SDS011;58294;42.988;20.338;2024-01-07T13:51:45;15.60;;;9.00;;
70592;SDS011;58294;42.988;20.338;2024-01-07T13:54:11;27.10;;;18.42;;
70592;SDS011;58294;42.988;20.338;2024-01-07T13:56:42;20.52;;;11.05;;
70592;SDS011;58294;42.988;20.338;2024-01-07T13:59:09;17.63;;;10.02;;
70592;SDS011;58294;42.988;20.338;2024-01-07T14:01:35;13.05;;;7.78;;
70592;SDS011;58294;42.988;20.338;2024-01-07T14:04:02;10.52;;;6.72;;
70592;SDS011;58294;42.988;20.338;2024-01-07T14:06:28;12.00;;;7.18;;
70592;SDS011;58294;42.988;20.338;2024-01-07T14:08:54;15.27;;;9.98;;
70592;SDS011;58294;42.988;20.338;2024-01-07T14:11:20;13.75;;;7.70;;
70592;SDS011;58294;42.988;20.338;2024-01-07T14:13:46;15.23;;;7.97;;
70592;SDS011;58294;42.988;20.338;2024-01-07T14:16:12;12.82;;;9.40;;
70592;SDS011;58294;42.988;20.338;2024-01-07T14:18:38;13.05;;;9.98;;